Lusk, Wyoming
Current Conditions -  °F | °C
As of 4:35 AM on Friday 31 Oct 2014 (Local Time) from KGUR Reporting Station
Clear Clear  
Wind Chill: 32°   Ceiling: Unl
Heat Index: 37°   Visibility: 10mi
Dew Point: 34°   Wind: 6mph
Humidity: 91%   Direction: 110°ESE
Pressure: 30.36"   Gusts: NA
Location:  42.76°N, 104.45°W
Report Text: KGUR 311035Z AUTO 11005KT 10SM CLR 03/01 A3036 RMK AO2 T00250011 PWINO
Loading
Personal Weather Stations






























Interactive Weather Map
Tropical Storm Tracking
New forecast layout! Learn more

10-Day Weather Forecast

Advertisements
Track Severe Weather on mobile